Time;durP1;ratioP1;P1;durP2;ratioP2;P2;SDS_P1;SDS_P2;PMS_P1;PMS_P2;Temp;Humidity;BMP_temperature;BMP_pressure;BME280_temperature;BME280_humidity;BME280_pressure;Samples;Min_cycle;Max_cycle;Signal;HPM_P1;HPM_P2
2022/01/23 00:01:42;;;;;;;5.32;3.03;;;;;;;;;;5051192;28;20092;-38
2022/01/23 00:04:07;;;;;;;5.55;3.25;;;;;;;;;;5051378;28;20481;-39
2022/01/23 00:06:34;;;;;;;11.93;4.20;;;;;;;;;;5051820;28;20088;-39
2022/01/23 00:08:59;;;;;;;7.63;3.75;;;;;;;;;;5052117;28;20028;-39
2022/01/23 00:11:27;;;;;;;14.02;4.45;;;;;;;;;;5052207;28;20032;-39
2022/01/23 00:19:06;;;;;;;6.40;3.28;;;;;;;;;;5052685;28;20044;-39
2022/01/23 00:21:34;;;;;;;10.15;3.92;;;;;;;;;;5052928;28;20017;-40
2022/01/23 00:31:53;;;;;;;8.40;3.38;;;;;;;;;;5052510;28;20500;-39
2022/01/23 00:34:19;;;;;;;8.50;4.15;;;;;;;;;;5052802;28;20029;-39
2022/01/23 00:36:45;;;;;;;6.38;2.70;;;;;;;;;;5052751;28;20086;-39
2022/01/23 00:39:10;;;;;;;3.17;2.70;;;;;;;;;;5052679;28;20485;-39
2022/01/23 00:41:36;;;;;;;3.38;2.60;;;;;;;;;;5052680;28;20377;-39
2022/01/23 00:44:02;;;;;;;6.50;2.97;;;;;;;;;;5052258;28;20024;-39
2022/01/23 00:46:34;;;;;;;2.17;1.88;;;;;;;;;;5052639;28;20068;-40
2022/01/23 00:51:34;;;;;;;5.20;2.63;;;;;;;;;;5052337;28;20052;-39
2022/01/23 00:54:02;;;;;;;3.58;2.28;;;;;;;;;;5052579;28;20017;-39
2022/01/23 00:56:28;;;;;;;5.10;2.03;;;;;;;;;;5052550;28;20025;-39
2022/01/23 00:58:53;;;;;;;5.80;2.63;;;;;;;;;;5052178;28;20078;-40
2022/01/23 01:01:19;;;;;;;3.00;2.10;;;;;;;;;;5052539;28;20036;-40
2022/01/23 01:03:46;;;;;;;3.92;2.38;;;;;;;;;;5052404;28;20032;-40
2022/01/23 01:06:12;;;;;;;6.00;2.28;;;;;;;;;;5052189;28;20025;-39
2022/01/23 01:08:38;;;;;;;6.25;2.78;;;;;;;;;;5052206;28;20456;-40
2022/01/23 01:17:07;;;;;;;7.30;2.47;;;;;;;;;;5052452;28;20481;-40
2022/01/23 01:35:19;;;;;;;6.35;2.58;;;;;;;;;;5055988;28;20028;-39
2022/01/23 01:37:44;;;;;;;3.10;2.22;;;;;;;;;;5056114;28;20116;-39
2022/01/23 01:40:10;;;;;;;5.15;2.30;;;;;;;;;;5055770;28;20060;-40
2022/01/23 01:42:35;;;;;;;2.85;1.90;;;;;;;;;;5055797;28;20496;-39
2022/01/23 01:45:01;;;;;;;9.57;2.28;;;;;;;;;;5054712;28;20032;-39
2022/01/23 01:47:27;;;;;;;3.78;2.40;;;;;;;;;;5055633;28;20396;-39
2022/01/23 01:49:52;;;;;;;7.53;2.50;;;;;;;;;;5055210;28;20047;-39
2022/01/23 01:52:18;;;;;;;5.45;2.53;;;;;;;;;;5055818;28;20031;-40
2022/01/23 01:54:43;;;;;;;6.43;2.70;;;;;;;;;;5055254;28;20162;-39
2022/01/23 01:57:10;;;;;;;8.02;3.08;;;;;;;;;;5055565;28;20037;-40
2022/01/23 02:10:26;;;;;;;3.25;2.50;;;;;;;;;;5055265;28;20079;-39
2022/01/23 02:53:34;;;;;;;10.82;3.17;;;;;;;;;;5054717;28;20052;-40
2022/01/23 02:56:01;;;;;;;5.72;2.95;;;;;;;;;;5054490;28;20028;-40
2022/01/23 02:58:35;;;;;;;12.25;3.58;;;;;;;;;;5054585;28;20035;-40
2022/01/23 03:01:16;;;;;;;5.40;2.80;;;;;;;;;;5054653;28;20062;-40
2022/01/23 03:03:45;;;;;;;2.40;2.20;;;;;;;;;;5054524;28;20029;-38
2022/01/23 03:30:37;;;;;;;3.35;2.10;;;;;;;;;;5053673;28;20029;-40
2022/01/23 03:33:02;;;;;;;4.93;2.90;;;;;;;;;;5054022;28;20029;-39
2022/01/23 03:35:28;;;;;;;7.60;2.65;;;;;;;;;;5053678;28;20021;-40
2022/01/23 03:37:54;;;;;;;2.15;1.83;;;;;;;;;;5053800;28;20070;-39
2022/01/23 03:40:20;;;;;;;1.40;1.30;;;;;;;;;;5053797;28;20068;-39
2022/01/23 03:42:48;;;;;;;1.52;1.42;;;;;;;;;;5053714;28;20044;-40
2022/01/23 03:45:55;;;;;;;1.40;1.23;;;;;;;;;;5053672;28;20029;-40
2022/01/23 03:50:48;;;;;;;4.43;1.98;;;;;;;;;;5053163;28;20053;-40
2022/01/23 03:53:14;;;;;;;4.10;2.20;;;;;;;;;;5053486;28;20028;-39
2022/01/23 03:55:40;;;;;;;2.20;1.45;;;;;;;;;;5052365;28;20571;-39
2022/01/23 03:58:05;;;;;;;5.75;2.92;;;;;;;;;;5053089;28;20140;-38
2022/01/23 04:00:31;;;;;;;2.22;1.73;;;;;;;;;;5053328;28;20065;-40
2022/01/23 04:02:57;;;;;;;7.18;2.20;;;;;;;;;;5053009;28;20370;-39
2022/01/23 04:05:22;;;;;;;2.60;1.80;;;;;;;;;;5052941;28;20051;-39
2022/01/23 04:07:48;;;;;;;6.43;2.83;;;;;;;;;;5053306;28;20028;-38
2022/01/23 04:10:16;;;;;;;11.68;3.13;;;;;;;;;;5052868;28;20025;-38
2022/01/23 04:12:53;;;;;;;4.18;2.17;;;;;;;;;;5053169;28;20044;-39
2022/01/23 04:15:37;;;;;;;5.85;3.40;;;;;;;;;;5053201;28;20025;-39
2022/01/23 04:48:37;;;;;;;3.72;2.30;;;;;;;;;;5052736;28;20155;-40
2022/01/23 05:01:30;;;;;;;1.85;1.73;;;;;;;;;;5052333;28;20040;-40
2022/01/23 05:04:14;;;;;;;5.85;2.47;;;;;;;;;;5052316;28;20503;-40
2022/01/23 05:06:58;;;;;;;4.55;2.95;;;;;;;;;;5055324;28;20029;-38
2022/01/23 05:09:24;;;;;;;6.95;3.67;;;;;;;;;;5056547;28;20108;-39
2022/01/23 05:11:53;;;;;;;7.00;3.00;;;;;;;;;;5056341;28;20529;-39
2022/01/23 05:14:26;;;;;;;4.82;2.97;;;;;;;;;;5056531;28;20037;-38
2022/01/23 05:16:52;;;;;;;6.70;2.72;;;;;;;;;;5056248;28;20044;-38
2022/01/23 05:19:17;;;;;;;7.20;3.47;;;;;;;;;;5056473;28;20054;-39
2022/01/23 05:24:19;;;;;;;1.92;1.30;;;;;;;;;;5056274;28;20029;-39
2022/01/23 05:26:46;;;;;;;6.65;2.53;;;;;;;;;;5055977;28;20039;-39
2022/01/23 05:29:13;;;;;;;1.73;1.63;;;;;;;;;;5056126;28;20025;-40
2022/01/23 05:31:38;;;;;;;1.45;1.10;;;;;;;;;;5055018;28;20020;-40
2022/01/23 05:34:04;;;;;;;0.73;0.73;;;;;;;;;;5056124;28;20488;-39
2022/01/23 05:36:30;;;;;;;0.95;0.85;;;;;;;;;;5055762;28;20017;-39
2022/01/23 05:38:55;;;;;;;2.35;1.90;;;;;;;;;;5055991;28;20028;-40
2022/01/23 05:41:20;;;;;;;1.52;1.42;;;;;;;;;;5056032;28;20036;-39
2022/01/23 05:43:46;;;;;;;7.13;2.17;;;;;;;;;;5055738;28;20025;-40
2022/01/23 05:46:11;;;;;;;1.38;1.05;;;;;;;;;;5055723;28;20469;-39
2022/01/23 05:48:37;;;;;;;0.70;0.70;;;;;;;;;;5055990;28;20061;-39
2022/01/23 05:51:02;;;;;;;0.95;0.95;;;;;;;;;;5055329;28;20560;-38
2022/01/23 05:53:28;;;;;;;1.17;1.17;;;;;;;;;;5055524;28;20028;-39
2022/01/23 05:55:53;;;;;;;3.30;1.48;;;;;;;;;;5055548;28;20029;-38
2022/01/23 05:58:19;;;;;;;1.02;1.00;;;;;;;;;;5055501;28;20028;-39
2022/01/23 06:00:44;;;;;;;1.17;1.10;;;;;;;;;;5055685;28;20060;-39
2022/01/23 06:03:10;;;;;;;0.50;0.50;;;;;;;;;;5055665;28;20025;-39
2022/01/23 06:05:35;;;;;;;0.80;0.80;;;;;;;;;;5055637;28;20461;-40
2022/01/23 06:08:01;;;;;;;4.05;1.95;;;;;;;;;;5054016;28;20036;-40
2022/01/23 06:10:28;;;;;;;1.73;1.55;;;;;;;;;;5055455;28;20090;-39
2022/01/23 06:12:54;;;;;;;1.02;1.00;;;;;;;;;;5055172;28;20492;-38
2022/01/23 06:15:20;;;;;;;1.58;1.48;;;;;;;;;;5055161;28;20021;-40
2022/01/23 06:17:45;;;;;;;1.55;1.45;;;;;;;;;;5054290;28;20504;-39
2022/01/23 06:20:13;;;;;;;0.30;0.30;;;;;;;;;;5055046;28;20025;-40
2022/01/23 06:22:39;;;;;;;5.18;0.95;;;;;;;;;;5055376;28;20021;-39
2022/01/23 06:25:09;;;;;;;4.78;2.10;;;;;;;;;;5055270;28;20021;-39
2022/01/23 06:27:34;;;;;;;5.25;3.00;;;;;;;;;;5055547;28;20100;-39
2022/01/23 06:30:00;;;;;;;6.00;3.17;;;;;;;;;;5054797;28;20127;-39
2022/01/23 06:32:26;;;;;;;2.05;1.77;;;;;;;;;;5054858;28;20025;-39
2022/01/23 06:34:51;;;;;;;5.25;3.03;;;;;;;;;;5055169;28;20483;-39
2022/01/23 06:37:17;;;;;;;6.32;3.70;;;;;;;;;;5055060;28;20407;-39
2022/01/23 06:39:43;;;;;;;16.98;3.53;;;;;;;;;;5055006;28;20111;-41
2022/01/23 06:42:09;;;;;;;4.63;3.13;;;;;;;;;;5054974;28;20477;-40
2022/01/23 06:44:35;;;;;;;8.20;3.63;;;;;;;;;;5054903;28;20029;-39
2022/01/23 06:47:00;;;;;;;7.85;4.20;;;;;;;;;;5054809;28;20451;-40
2022/01/23 06:49:26;;;;;;;5.55;3.65;;;;;;;;;;5054488;28;20053;-40
2022/01/23 06:51:52;;;;;;;6.15;3.97;;;;;;;;;;5054353;28;20033;-40
2022/01/23 06:54:18;;;;;;;7.65;3.90;;;;;;;;;;5054292;28;20033;-40
2022/01/23 06:56:44;;;;;;;8.52;4.75;;;;;;;;;;5054302;28;20404;-39
2022/01/23 06:59:09;;;;;;;12.10;5.10;;;;;;;;;;5054557;28;20025;-39
2022/01/23 07:01:35;;;;;;;12.65;5.03;;;;;;;;;;5054485;28;20033;-40
2022/01/23 07:04:01;;;;;;;11.88;5.60;;;;;;;;;;5054422;28;20037;-41
2022/01/23 07:06:26;;;;;;;10.60;5.57;;;;;;;;;;5054172;28;20569;-40
2022/01/23 07:08:51;;;;;;;17.63;7.32;;;;;;;;;;5053278;28;20033;-40
2022/01/23 07:11:17;;;;;;;16.70;8.20;;;;;;;;;;5053970;28;20072;-39
2022/01/23 07:13:42;;;;;;;17.27;8.70;;;;;;;;;;5054056;28;20032;-38
2022/01/23 07:16:08;;;;;;;20.90;10.95;;;;;;;;;;5054035;28;20029;-38
2022/01/23 07:18:33;;;;;;;24.05;9.48;;;;;;;;;;5054165;28;20037;-40
2022/01/23 07:20:59;;;;;;;18.08;7.90;;;;;;;;;;5053910;28;20488;-40
2022/01/23 07:23:25;;;;;;;14.32;6.85;;;;;;;;;;5053879;28;20032;-40
2022/01/23 07:25:51;;;;;;;12.32;5.53;;;;;;;;;;5054052;28;20032;-40
2022/01/23 07:28:20;;;;;;;9.40;4.03;;;;;;;;;;5054013;28;20056;-40
2022/01/23 07:30:52;;;;;;;9.38;4.82;;;;;;;;;;5053072;28;20021;-40
2022/01/23 07:33:18;;;;;;;6.40;3.58;;;;;;;;;;5054025;28;20132;-39
2022/01/23 07:35:44;;;;;;;10.88;4.13;;;;;;;;;;5053497;28;20405;-40
2022/01/23 07:38:11;;;;;;;10.95;3.85;;;;;;;;;;5053538;28;20051;-41
2022/01/23 07:40:37;;;;;;;8.57;4.32;;;;;;;;;;5053611;28;20025;-40
2022/01/23 07:43:02;;;;;;;9.57;3.97;;;;;;;;;;5053794;28;20029;-40
2022/01/23 07:45:28;;;;;;;9.90;4.25;;;;;;;;;;5053381;28;20052;-40
2022/01/23 07:47:53;;;;;;;11.50;4.68;;;;;;;;;;5053640;28;20017;-40
2022/01/23 07:50:19;;;;;;;9.48;4.65;;;;;;;;;;5053112;28;20432;-40
2022/01/23 07:52:44;;;;;;;9.88;4.90;;;;;;;;;;5053557;28;20028;-42
2022/01/23 07:55:13;;;;;;;8.23;4.88;;;;;;;;;;5053310;28;20027;-39
2022/01/23 07:57:42;;;;;;;13.75;4.40;;;;;;;;;;5053453;28;20083;-39
2022/01/23 08:00:09;;;;;;;6.32;3.67;;;;;;;;;;5053453;28;20029;-39
2022/01/23 08:02:34;;;;;;;9.10;4.18;;;;;;;;;;5053118;28;20036;-40
2022/01/23 08:05:00;;;;;;;6.38;3.78;;;;;;;;;;5053412;28;20028;-40
2022/01/23 08:10:05;;;;;;;7.60;3.88;;;;;;;;;;5053198;28;20029;-39
2022/01/23 08:12:31;;;;;;;5.07;3.35;;;;;;;;;;5053222;28;20032;-40
2022/01/23 08:14:58;;;;;;;7.53;3.90;;;;;;;;;;5052879;28;20427;-41
2022/01/23 08:17:24;;;;;;;5.78;3.20;;;;;;;;;;5053174;28;20074;-41
2022/01/23 08:19:54;;;;;;;5.60;3.13;;;;;;;;;;5053073;28;20028;-39
2022/01/23 08:22:21;;;;;;;6.40;3.60;;;;;;;;;;5052928;28;20024;-39
2022/01/23 08:24:47;;;;;;;7.15;3.45;;;;;;;;;;5052783;28;20051;-39
2022/01/23 08:27:13;;;;;;;10.13;3.92;;;;;;;;;;5052968;28;20029;-39
2022/01/23 08:29:38;;;;;;;8.13;3.20;;;;;;;;;;5052806;28;20040;-41
2022/01/23 08:32:04;;;;;;;7.57;3.83;;;;;;;;;;5052793;28;20579;-40
2022/01/23 08:34:30;;;;;;;7.25;3.20;;;;;;;;;;5052507;28;20037;-42
2022/01/23 08:36:55;;;;;;;7.25;3.42;;;;;;;;;;5052809;28;20353;-41
2022/01/23 08:39:24;;;;;;;5.32;3.42;;;;;;;;;;5052823;28;20033;-38
2022/01/23 08:41:50;;;;;;;4.72;3.15;;;;;;;;;;5052138;28;20476;-41
2022/01/23 08:44:20;;;;;;;6.53;3.35;;;;;;;;;;5052734;28;20021;-40
2022/01/23 08:46:46;;;;;;;6.68;3.47;;;;;;;;;;5052451;28;20017;-41
2022/01/23 08:49:13;;;;;;;7.45;3.10;;;;;;;;;;5052188;28;20481;-41
2022/01/23 08:51:40;;;;;;;5.60;2.88;;;;;;;;;;5052401;28;20044;-40
2022/01/23 08:54:06;;;;;;;5.43;3.05;;;;;;;;;;5052459;28;20040;-40
2022/01/23 08:56:32;;;;;;;5.25;3.10;;;;;;;;;;5052653;28;20373;-39
2022/01/23 08:58:57;;;;;;;6.30;3.40;;;;;;;;;;5052663;28;20044;-42
2022/01/23 09:01:24;;;;;;;7.75;2.78;;;;;;;;;;5052624;28;20539;-40
2022/01/23 09:03:50;;;;;;;5.13;3.00;;;;;;;;;;5052610;28;20086;-40
2022/01/23 09:06:15;;;;;;;6.70;3.05;;;;;;;;;;5052591;28;20025;-40
2022/01/23 09:08:41;;;;;;;7.13;3.25;;;;;;;;;;5052564;28;20472;-42
2022/01/23 09:11:23;;;;;;;6.13;3.15;;;;;;;;;;5052249;28;20036;-41
2022/01/23 09:16:15;;;;;;;5.80;2.90;;;;;;;;;;5052761;28;20021;-40
2022/01/23 09:18:41;;;;;;;7.00;3.05;;;;;;;;;;5052352;28;20099;-41
2022/01/23 09:21:06;;;;;;;7.13;3.05;;;;;;;;;;5052408;28;20037;-41
2022/01/23 09:23:32;;;;;;;7.43;3.13;;;;;;;;;;5052400;28;20525;-41
2022/01/23 09:26:00;;;;;;;9.18;3.53;;;;;;;;;;5052058;28;20025;-42
2022/01/23 09:28:31;;;;;;;7.38;3.30;;;;;;;;;;5052324;28;20052;-40
2022/01/23 09:30:58;;;;;;;7.63;3.40;;;;;;;;;;5052209;28;20033;-41
2022/01/23 09:33:23;;;;;;;7.95;3.45;;;;;;;;;;5051929;28;20075;-39
2022/01/23 09:35:49;;;;;;;6.43;3.30;;;;;;;;;;5052249;28;20017;-43
2022/01/23 09:38:14;;;;;;;6.30;3.00;;;;;;;;;;5052302;28;20094;-41
2022/01/23 09:40:44;;;;;;;8.10;3.67;;;;;;;;;;5051947;28;20037;-41
2022/01/23 09:43:16;;;;;;;6.18;3.28;;;;;;;;;;5051968;28;20021;-42
2022/01/23 09:45:48;;;;;;;10.98;3.35;;;;;;;;;;5052080;28;20021;-41
2022/01/23 09:48:18;;;;;;;6.18;3.28;;;;;;;;;;5051878;28;20021;-42
2022/01/23 09:50:47;;;;;;;7.78;3.25;;;;;;;;;;5050917;28;20135;-40
2022/01/23 09:53:13;;;;;;;5.93;3.45;;;;;;;;;;5052887;28;20691;-41
2022/01/23 09:55:49;;;;;;;9.48;3.67;;;;;;;;;;5054907;28;20493;-41
2022/01/23 09:58:15;;;;;;;7.43;4.00;;;;;;;;;;5054870;28;20021;-40
2022/01/23 10:00:41;;;;;;;9.35;3.72;;;;;;;;;;5055166;28;20028;-40
2022/01/23 10:03:07;;;;;;;6.20;3.47;;;;;;;;;;5055070;28;20085;-39
2022/01/23 10:05:33;;;;;;;3.88;3.05;;;;;;;;;;5055184;28;20029;-38
2022/01/23 10:07:59;;;;;;;7.00;3.60;;;;;;;;;;5055028;28;20025;-39
2022/01/23 10:10:31;;;;;;;6.60;3.53;;;;;;;;;;5055138;28;20029;-39
2022/01/23 10:13:00;;;;;;;5.72;3.35;;;;;;;;;;5055238;28;20032;-39
2022/01/23 10:15:29;;;;;;;5.32;3.50;;;;;;;;;;5055226;28;20500;-39
2022/01/23 10:17:55;;;;;;;7.43;3.78;;;;;;;;;;5055228;28;20091;-42
2022/01/23 10:20:21;;;;;;;7.55;3.80;;;;;;;;;;5055164;28;20148;-39
2022/01/23 10:22:50;;;;;;;5.95;3.60;;;;;;;;;;5054961;28;20078;-41
2022/01/23 10:25:21;;;;;;;6.88;3.72;;;;;;;;;;5055084;28;20025;-41
2022/01/23 10:27:59;;;;;;;8.07;3.45;;;;;;;;;;5055401;28;20452;-40
2022/01/23 10:30:27;;;;;;;5.95;3.60;;;;;;;;;;5055119;28;20036;-39
2022/01/23 10:33:11;;;;;;;17.45;3.75;;;;;;;;;;5055004;28;20056;-39
2022/01/23 10:35:55;;;;;;;8.20;4.22;;;;;;;;;;5055060;28;20021;-42
2022/01/23 10:38:22;;;;;;;8.05;3.97;;;;;;;;;;5054754;28;20473;-40
2022/01/23 10:40:52;;;;;;;8.15;3.90;;;;;;;;;;5054943;28;20028;-39
2022/01/23 10:48:48;;;;;;;5.72;3.50;;;;;;;;;;5054937;28;20082;-41
2022/01/23 10:51:22;;;;;;;6.18;3.22;;;;;;;;;;5054433;28;20476;-38
2022/01/23 10:54:09;;;;;;;5.65;3.42;;;;;;;;;;5054527;28;20028;-37
2022/01/23 10:56:39;;;;;;;5.80;3.40;;;;;;;;;;5054348;28;20040;-37
2022/01/23 10:59:12;;;;;;;7.05;3.45;;;;;;;;;;5054734;28;20033;-36
2022/01/23 11:01:57;;;;;;;5.20;3.40;;;;;;;;;;5054608;28;20029;-37
2022/01/23 11:04:23;;;;;;;7.65;3.60;;;;;;;;;;5054328;28;20378;-40
2022/01/23 11:07:00;;;;;;;5.60;3.45;;;;;;;;;;5054331;28;20016;-36
2022/01/23 11:09:32;;;;;;;6.32;3.10;;;;;;;;;;5054123;28;20392;-40
2022/01/23 11:12:03;;;;;;;7.05;3.30;;;;;;;;;;5054474;28;20028;-38
2022/01/23 11:17:23;;;;;;;5.07;3.08;;;;;;;;;;5054063;28;20040;-36
2022/01/23 11:19:54;;;;;;;6.32;3.55;;;;;;;;;;5052077;28;20628;-39
2022/01/23 11:22:22;;;;;;;5.47;3.15;;;;;;;;;;5052423;28;20435;-37
2022/01/23 11:24:50;;;;;;;5.43;2.97;;;;;;;;;;5052837;28;20071;-36
2022/01/23 11:27:18;;;;;;;4.45;3.20;;;;;;;;;;5053177;28;20476;-39
2022/01/23 11:29:55;;;;;;;5.53;3.38;;;;;;;;;;5053248;28;20436;-38
2022/01/23 11:32:23;;;;;;;5.78;3.47;;;;;;;;;;5052035;28;20503;-37
2022/01/23 11:34:50;;;;;;;4.30;2.95;;;;;;;;;;5050408;28;20017;-37
2022/01/23 11:37:17;;;;;;;5.05;3.42;;;;;;;;;;5052993;28;20031;-36
2022/01/23 11:39:49;;;;;;;5.28;3.60;;;;;;;;;;5052966;28;20025;-37
2022/01/23 11:56:27;;;;;;;5.40;3.60;;;;;;;;;;5052920;28;20118;-39
2022/01/23 11:59:09;;;;;;;6.50;3.78;;;;;;;;;;5053440;28;20559;-38
2022/01/23 12:01:35;;;;;;;6.65;3.83;;;;;;;;;;5052922;28;20033;-37
2022/01/23 12:04:11;;;;;;;7.00;3.92;;;;;;;;;;5052876;28;20025;-38
2022/01/23 12:06:39;;;;;;;7.10;4.10;;;;;;;;;;5053209;28;20033;-41
2022/01/23 12:09:10;;;;;;;5.30;3.83;;;;;;;;;;5053370;28;20029;-40
2022/01/23 12:16:54;;;;;;;;;;;;;;;;;;5052724;28;20040;-38
2022/01/23 12:19:23;;;;;;;7.70;4.32;;;;;;;;;;5051717;28;19987;-37
2022/01/23 12:21:52;;;;;;;10.98;4.20;;;;;;;;;;5051049;28;20495;-42
2022/01/23 12:24:19;;;;;;;6.10;3.80;;;;;;;;;;5052533;28;20109;-39
2022/01/23 12:26:45;;;;;;;7.00;3.70;;;;;;;;;;5052481;28;20036;-38
2022/01/23 12:29:13;;;;;;;7.70;3.97;;;;;;;;;;5051346;28;20409;-39
2022/01/23 12:31:40;;;;;;;7.05;3.85;;;;;;;;;;5052351;28;20469;-38
2022/01/23 12:34:06;;;;;;;7.07;3.85;;;;;;;;;;5051353;28;20021;-39
2022/01/23 12:36:34;;;;;;;7.47;4.10;;;;;;;;;;5052916;28;20422;-38
2022/01/23 12:39:08;;;;;;;6.55;3.63;;;;;;;;;;5052576;28;20025;-38
2022/01/23 12:41:39;;;;;;;8.52;4.05;;;;;;;;;;5052646;28;20179;-41
2022/01/23 12:44:07;;;;;;;7.35;3.78;;;;;;;;;;5052832;28;20498;-38
2022/01/23 12:46:35;;;;;;;6.05;3.28;;;;;;;;;;5052749;28;20056;-38
2022/01/23 12:49:20;;;;;;;5.53;3.47;;;;;;;;;;5052446;28;20392;-38
2022/01/23 12:51:47;;;;;;;6.35;3.38;;;;;;;;;;5052756;28;20033;-39
2022/01/23 12:54:21;;;;;;;5.57;3.35;;;;;;;;;;5052640;28;20075;-38
2022/01/23 12:56:49;;;;;;;6.90;3.10;;;;;;;;;;5052676;28;20074;-38
2022/01/23 12:59:23;;;;;;;6.82;3.08;;;;;;;;;;5052269;28;20024;-38
2022/01/23 13:01:54;;;;;;;5.68;3.25;;;;;;;;;;5052664;28;20029;-38
2022/01/23 13:04:20;;;;;;;6.50;3.00;;;;;;;;;;5052371;28;20499;-38
2022/01/23 13:06:51;;;;;;;7.57;3.47;;;;;;;;;;5052303;28;20061;-38
2022/01/23 13:12:15;;;;;;;5.35;3.45;;;;;;;;;;5052264;28;20389;-39
2022/01/23 13:15:41;;;;;;;5.97;3.42;;;;;;;;;;5052581;28;20393;-43
2022/01/23 13:27:05;;;;;;;5.45;3.40;;;;;;;;;;5052907;28;20036;-38
2022/01/23 13:32:44;;;;;;;7.68;4.07;;;;;;;;;;5056304;28;20044;-38
2022/01/23 13:35:14;;;;;;;7.75;4.18;;;;;;;;;;5054059;28;20041;-39
2022/01/23 13:37:57;;;;;;;7.80;4.03;;;;;;;;;;5055982;28;20389;-41
2022/01/23 13:40:34;;;;;;;11.00;4.82;;;;;;;;;;5055927;28;20037;-38
2022/01/23 13:53:31;;;;;;;8.68;4.28;;;;;;;;;;5055666;28;20492;-42
2022/01/23 13:58:51;;;;;;;9.23;3.80;;;;;;;;;;5055966;28;20043;-43
2022/01/23 14:03:53;;;;;;;10.20;3.95;;;;;;;;;;5055872;28;20055;-41
2022/01/23 14:06:18;;;;;;;8.80;4.22;;;;;;;;;;5055548;28;20025;-40
2022/01/23 14:09:00;;;;;;;6.53;3.90;;;;;;;;;;5055934;28;20513;-41
2022/01/23 14:11:27;;;;;;;6.55;3.90;;;;;;;;;;5055599;28;20033;-40
2022/01/23 14:13:52;;;;;;;8.65;4.47;;;;;;;;;;5055321;28;20500;-40
2022/01/23 14:16:26;;;;;;;10.07;5.28;;;;;;;;;;5055199;28;20025;-41
2022/01/23 14:18:52;;;;;;;8.43;4.78;;;;;;;;;;5055466;28;20121;-43
2022/01/23 14:21:19;;;;;;;10.02;4.65;;;;;;;;;;5055104;28;20108;-41
2022/01/23 14:23:55;;;;;;;11.80;4.50;;;;;;;;;;5055088;28;20032;-40
2022/01/23 14:26:22;;;;;;;9.15;5.05;;;;;;;;;;5055376;28;20053;-41
2022/01/23 14:28:50;;;;;;;8.77;4.32;;;;;;;;;;5055040;28;20021;-40
2022/01/23 14:31:23;;;;;;;8.55;4.70;;;;;;;;;;5054926;28;20029;-40
2022/01/23 14:33:55;;;;;;;9.73;4.43;;;;;;;;;;5055254;28;20028;-41
2022/01/23 14:36:27;;;;;;;10.23;4.43;;;;;;;;;;5054906;28;20025;-40
2022/01/23 14:38:58;;;;;;;7.38;4.18;;;;;;;;;;5054461;28;20025;-41
2022/01/23 14:41:35;;;;;;;10.52;5.25;;;;;;;;;;5054993;28;20025;-40
2022/01/23 14:44:13;;;;;;;7.30;4.60;;;;;;;;;;5054678;28;20021;-40
2022/01/23 14:46:39;;;;;;;10.35;5.20;;;;;;;;;;5054996;28;20362;-40
2022/01/23 14:49:10;;;;;;;11.73;4.68;;;;;;;;;;5054341;28;20021;-40
2022/01/23 14:51:38;;;;;;;10.85;4.70;;;;;;;;;;5054724;28;20029;-40
2022/01/23 14:54:04;;;;;;;7.05;4.47;;;;;;;;;;5054721;28;20099;-40
2022/01/23 14:56:32;;;;;;;10.00;4.82;;;;;;;;;;5054731;28;20025;-40
2022/01/23 14:58:58;;;;;;;8.88;5.22;;;;;;;;;;5054706;28;20078;-40
2022/01/23 15:01:23;;;;;;;11.63;5.50;;;;;;;;;;5054227;28;20037;-40
2022/01/23 15:03:52;;;;;;;8.75;4.78;;;;;;;;;;5054334;28;20025;-40
2022/01/23 15:06:24;;;;;;;12.23;5.22;;;;;;;;;;5054580;28;20032;-40
2022/01/23 15:08:49;;;;;;;8.88;5.15;;;;;;;;;;5054531;28;20021;-40
2022/01/23 15:11:15;;;;;;;12.73;6.05;;;;;;;;;;5054362;28;20055;-40
2022/01/23 15:13:41;;;;;;;12.52;5.40;;;;;;;;;;5054096;28;20511;-39
2022/01/23 15:16:06;;;;;;;11.18;4.95;;;;;;;;;;5052889;28;20029;-40
2022/01/23 15:18:33;;;;;;;14.90;5.50;;;;;;;;;;5054076;28;20064;-40
2022/01/23 15:20:59;;;;;;;10.27;5.22;;;;;;;;;;5054014;28;20540;-40
2022/01/23 15:23:24;;;;;;;13.23;5.43;;;;;;;;;;5053956;28;20028;-39
2022/01/23 15:25:50;;;;;;;10.52;5.88;;;;;;;;;;5054155;28;20032;-40
2022/01/23 15:28:15;;;;;;;14.30;5.95;;;;;;;;;;5054127;28;20021;-39
2022/01/23 15:30:41;;;;;;;11.75;5.18;;;;;;;;;;5053792;28;20039;-40
2022/01/23 15:33:08;;;;;;;12.57;5.80;;;;;;;;;;5054018;28;20389;-40
2022/01/23 15:35:36;;;;;;;12.90;6.25;;;;;;;;;;5053854;28;20031;-39
2022/01/23 15:38:03;;;;;;;9.68;4.65;;;;;;;;;;5053972;28;20032;-39
2022/01/23 15:40:29;;;;;;;9.02;5.47;;;;;;;;;;5053625;28;20411;-41
2022/01/23 15:42:55;;;;;;;12.85;6.07;;;;;;;;;;5053565;28;20033;-39
2022/01/23 15:45:24;;;;;;;13.15;5.50;;;;;;;;;;5053540;28;20064;-40
2022/01/23 15:47:50;;;;;;;12.88;5.93;;;;;;;;;;5053427;28;20025;-43
2022/01/23 15:50:19;;;;;;;11.98;5.55;;;;;;;;;;5052287;28;20497;-39
2022/01/23 15:52:45;;;;;;;12.85;5.85;;;;;;;;;;5053696;28;20388;-40
2022/01/23 15:55:11;;;;;;;13.40;6.60;;;;;;;;;;5053375;28;20021;-40
2022/01/23 15:57:38;;;;;;;11.52;6.75;;;;;;;;;;5053407;28;20549;-40
2022/01/23 16:00:06;;;;;;;12.38;6.22;;;;;;;;;;5053549;28;20029;-39
2022/01/23 16:02:31;;;;;;;11.38;5.95;;;;;;;;;;5053139;28;20135;-39
2022/01/23 16:04:59;;;;;;;9.50;5.50;;;;;;;;;;5053485;28;20067;-39
2022/01/23 16:07:25;;;;;;;12.68;5.90;;;;;;;;;;5053085;28;20039;-39
2022/01/23 16:09:51;;;;;;;11.80;6.25;;;;;;;;;;5053277;28;20056;-40
2022/01/23 16:12:18;;;;;;;12.40;6.60;;;;;;;;;;5053374;28;20049;-39
2022/01/23 16:14:44;;;;;;;12.80;6.32;;;;;;;;;;5053679;28;20060;-39
2022/01/23 16:17:09;;;;;;;11.05;5.82;;;;;;;;;;5053551;28;20155;-40
2022/01/23 16:19:35;;;;;;;13.13;6.30;;;;;;;;;;5052893;28;20028;-39
2022/01/23 16:22:01;;;;;;;14.45;7.47;;;;;;;;;;5053107;28;20090;-40
2022/01/23 16:24:27;;;;;;;16.42;7.97;;;;;;;;;;5053108;28;20031;-40
2022/01/23 16:26:53;;;;;;;15.70;8.85;;;;;;;;;;5053239;28;20078;-39
2022/01/23 16:29:21;;;;;;;18.92;8.82;;;;;;;;;;5053087;28;20113;-40
2022/01/23 16:31:47;;;;;;;14.18;8.45;;;;;;;;;;5052903;28;20396;-41
2022/01/23 16:34:13;;;;;;;20.70;8.82;;;;;;;;;;5052631;28;20033;-40
2022/01/23 16:36:38;;;;;;;14.98;7.85;;;;;;;;;;5052631;28;20029;-40
2022/01/23 16:39:04;;;;;;;15.77;7.60;;;;;;;;;;5052868;28;20024;-39
2022/01/23 16:41:30;;;;;;;18.92;8.77;;;;;;;;;;5052799;28;20029;-40
2022/01/23 16:43:56;;;;;;;14.00;7.35;;;;;;;;;;5052772;28;20474;-40
2022/01/23 16:46:21;;;;;;;15.90;7.60;;;;;;;;;;5052515;28;20033;-40
2022/01/23 16:48:47;;;;;;;17.50;9.15;;;;;;;;;;5052254;28;20116;-40
2022/01/23 16:51:13;;;;;;;22.27;9.30;;;;;;;;;;5052362;28;20025;-40
2022/01/23 16:53:39;;;;;;;17.13;8.65;;;;;;;;;;5052341;28;20037;-40
2022/01/23 16:56:04;;;;;;;18.58;8.70;;;;;;;;;;5052746;28;20078;-39
2022/01/23 16:58:32;;;;;;;16.88;8.07;;;;;;;;;;5052707;28;20055;-39
2022/01/23 17:00:58;;;;;;;15.95;7.63;;;;;;;;;;5052200;28;20021;-39
2022/01/23 17:03:24;;;;;;;15.05;7.82;;;;;;;;;;5052769;28;20025;-40
2022/01/23 17:05:51;;;;;;;17.52;8.15;;;;;;;;;;5052174;28;20025;-40
2022/01/23 17:08:17;;;;;;;25.65;9.18;;;;;;;;;;5052280;28;20029;-40
2022/01/23 17:10:43;;;;;;;19.35;9.27;;;;;;;;;;5052161;28;20085;-39
2022/01/23 17:13:09;;;;;;;17.85;8.60;;;;;;;;;;5052480;28;20055;-39
2022/01/23 17:15:36;;;;;;;18.83;8.98;;;;;;;;;;5052442;28;20021;-40
2022/01/23 17:18:03;;;;;;;19.50;9.85;;;;;;;;;;5050902;28;20025;-39
2022/01/23 17:20:29;;;;;;;27.67;10.25;;;;;;;;;;5052184;28;20044;-39
2022/01/23 17:22:54;;;;;;;16.77;9.13;;;;;;;;;;5052483;28;20017;-40
2022/01/23 17:25:20;;;;;;;22.23;9.38;;;;;;;;;;5052131;28;20025;-39
2022/01/23 17:27:46;;;;;;;13.43;6.90;;;;;;;;;;5052294;28;20029;-39
2022/01/23 17:30:13;;;;;;;19.55;9.65;;;;;;;;;;5051989;28;20495;-39
2022/01/23 17:32:38;;;;;;;19.77;8.85;;;;;;;;;;5052079;28;20056;-39
2022/01/23 17:35:05;;;;;;;16.58;7.93;;;;;;;;;;5052343;28;20064;-39
2022/01/23 17:37:31;;;;;;;16.83;8.50;;;;;;;;;;5052263;28;20035;-41
2022/01/23 17:39:57;;;;;;;18.58;8.77;;;;;;;;;;5052292;28;20029;-39
2022/01/23 17:42:22;;;;;;;14.40;7.60;;;;;;;;;;5052040;28;20025;-39
2022/01/23 17:44:50;;;;;;;18.88;8.57;;;;;;;;;;5051989;28;20029;-39
2022/01/23 17:50:04;;;;;;;16.48;8.05;;;;;;;;;;5051791;28;20060;-39
2022/01/23 17:52:30;;;;;;;17.20;7.78;;;;;;;;;;5052227;28;20049;-39
2022/01/23 17:54:56;;;;;;;21.95;7.88;;;;;;;;;;5051856;28;20025;-39
2022/01/23 17:57:22;;;;;;;21.02;9.02;;;;;;;;;;5052097;28;20082;-39
2022/01/23 17:59:47;;;;;;;23.58;8.60;;;;;;;;;;5051789;28;20029;-39
2022/01/23 18:02:14;;;;;;;23.42;8.75;;;;;;;;;;5050494;28;20496;-39
2022/01/23 18:04:40;;;;;;;21.08;8.90;;;;;;;;;;5051798;28;20027;-39
2022/01/23 18:07:08;;;;;;;17.90;9.25;;;;;;;;;;5051737;28;20028;-39
2022/01/23 18:09:36;;;;;;;22.88;9.52;;;;;;;;;;5051562;28;20021;-39
2022/01/23 18:12:02;;;;;;;18.70;8.80;;;;;;;;;;5051984;28;20079;-39
2022/01/23 18:14:29;;;;;;;20.95;9.18;;;;;;;;;;5054079;28;20032;-39
2022/01/23 18:16:55;;;;;;;21.23;8.75;;;;;;;;;;5055503;28;20108;-39
2022/01/23 18:19:20;;;;;;;24.35;7.90;;;;;;;;;;5055476;28;20500;-38
2022/01/23 18:21:48;;;;;;;19.73;9.30;;;;;;;;;;5055080;28;20035;-40
2022/01/23 18:24:14;;;;;;;17.92;8.65;;;;;;;;;;5054955;28;20481;-39
2022/01/23 18:26:42;;;;;;;21.50;9.55;;;;;;;;;;5055340;28;20083;-39
2022/01/23 18:29:09;;;;;;;18.65;8.70;;;;;;;;;;5055316;28;20041;-40